Time;durP1;ratioP1;P1;durP2;ratioP2;P2;SDS_P1;SDS_P2;PMS_P1;PMS_P2;Temp;Humidity;BMP_temperature;BMP_pressure;BME280_temperature;BME280_humidity;BME280_pressure;Samples;Min_cycle;Max_cycle;Signal;HPM_P1;HPM_P2
2022/04/12 00:01:36;;;;;;;11.68;3.45;;;0.30;99.90;;;;;;5034766;28;20095;-68
2022/04/12 00:04:03;;;;;;;8.27;3.63;;;0.30;99.90;;;;;;5016877;28;20025;-68
2022/04/12 00:06:29;;;;;;;9.07;3.55;;;0.20;99.90;;;;;;5034453;28;20045;-68
2022/04/12 00:08:55;;;;;;;8.18;3.67;;;0.20;99.90;;;;;;5034330;28;20017;-68
2022/04/12 00:11:21;;;;;;;5.75;2.78;;;0.10;99.90;;;;;;5034541;28;20040;-68
2022/04/12 00:13:47;;;;;;;9.15;3.50;;;0.10;99.90;;;;;;5034357;28;20026;-68
2022/04/12 00:16:12;;;;;;;9.27;4.13;;;0.10;99.90;;;;;;5033664;28;20418;-68
2022/04/12 00:21:23;;;;;;;10.30;3.78;;;0.00;99.90;;;;;;5033998;28;20128;-68
2022/04/12 00:23:48;;;;;;;6.15;3.50;;;0.00;99.90;;;;;;5033997;28;20026;-68
2022/04/12 00:26:14;;;;;;;10.32;3.40;;;-0.10;99.90;;;;;;5033977;28;20478;-68
2022/04/12 00:28:41;;;;;;;13.55;3.95;;;-0.10;99.90;;;;;;5034184;28;20026;-68
2022/04/12 00:31:07;;;;;;;9.73;3.55;;;-0.10;99.90;;;;;;5034019;28;20482;-68
2022/04/12 00:33:33;;;;;;;8.82;3.45;;;-0.10;99.90;;;;;;5033768;28;20056;-68
2022/04/12 00:36:00;;;;;;;7.75;3.80;;;-0.20;99.90;;;;;;5033951;28;20060;-68
2022/04/12 00:38:27;;;;;;;11.13;3.80;;;-0.20;99.90;;;;;;5034054;28;20026;-68
2022/04/12 00:40:56;;;;;;;8.07;3.40;;;-0.20;99.90;;;;;;5033758;28;20025;-68
2022/04/12 00:43:27;;;;;;;15.15;4.03;;;-0.20;99.90;;;;;;5033923;28;20030;-68
2022/04/12 00:45:53;;;;;;;13.80;3.88;;;-0.20;99.90;;;;;;5033761;28;20501;-68
2022/04/12 00:48:18;;;;;;;17.13;3.85;;;-0.20;99.90;;;;;;5033912;28;20029;-68
2022/04/12 00:50:46;;;;;;;11.48;3.42;;;-0.20;99.90;;;;;;5033848;28;20053;-68
2022/04/12 00:53:12;;;;;;;10.75;4.43;;;-0.20;99.90;;;;;;5033432;28;20021;-68
2022/04/12 00:55:38;;;;;;;10.82;4.50;;;-0.20;99.90;;;;;;5033876;28;20047;-68
2022/04/12 00:58:06;;;;;;;11.98;4.22;;;-0.20;99.90;;;;;;5033698;28;20032;-68
2022/04/12 01:00:34;;;;;;;7.55;3.97;;;-0.20;99.90;;;;;;5034083;28;20067;-68
2022/04/12 01:03:00;;;;;;;9.30;4.65;;;-0.20;99.90;;;;;;5034395;28;20017;-68
2022/04/12 01:05:25;;;;;;;9.32;4.68;;;-0.10;99.90;;;;;;5034681;28;20032;-68
2022/04/12 01:07:51;;;;;;;11.00;4.43;;;-0.10;99.90;;;;;;5034458;28;20029;-68
2022/04/12 01:10:17;;;;;;;13.63;5.88;;;-0.20;99.90;;;;;;5034195;28;20036;-68
2022/04/12 01:12:46;;;;;;;12.77;5.43;;;-0.10;99.90;;;;;;5034784;28;20466;-68
2022/04/12 01:15:23;;;;;;;12.68;5.68;;;-0.10;99.90;;;;;;5034371;28;20032;-68
2022/04/12 01:17:49;;;;;;;17.00;6.55;;;0.00;99.90;;;;;;5034349;28;20033;-68
2022/04/12 01:20:17;;;;;;;16.63;5.97;;;0.00;99.90;;;;;;5034315;28;20030;-68
2022/04/12 01:23:08;;;;;;;16.08;5.43;;;0.00;99.90;;;;;;5034386;28;20025;-68
2022/04/12 01:25:34;;;;;;;10.27;5.40;;;0.10;99.90;;;;;;5034003;28;20021;-68
2022/04/12 01:28:00;;;;;;;13.35;5.65;;;0.10;99.90;;;;;;5036865;28;20036;-68
2022/04/12 01:30:25;;;;;;;11.25;5.60;;;0.10;99.90;;;;;;5038015;28;20099;-68
2022/04/12 01:32:51;;;;;;;12.00;6.53;;;0.10;99.90;;;;;;5037708;28;20593;-68
2022/04/12 01:35:16;;;;;;;9.85;5.65;;;0.10;99.90;;;;;;5037834;28;20482;-68
2022/04/12 01:37:42;;;;;;;18.25;5.47;;;0.10;99.90;;;;;;5037706;28;20025;-68
2022/04/12 01:40:09;;;;;;;15.35;5.75;;;0.10;99.90;;;;;;5019555;28;20030;-68
2022/04/12 01:42:36;;;;;;;11.98;5.63;;;0.00;99.90;;;;;;5037699;28;20041;-68
2022/04/12 01:45:02;;;;;;;13.35;6.20;;;0.10;99.90;;;;;;5037734;28;20124;-68
2022/04/12 01:47:27;;;;;;;16.60;5.60;;;0.10;99.90;;;;;;5037805;28;20104;-68
2022/04/12 01:49:53;;;;;;;12.52;5.47;;;0.00;99.90;;;;;;5037855;28;20071;-68
2022/04/12 01:52:18;;;;;;;14.52;6.53;;;0.10;99.90;;;;;;5037638;28;20025;-68
2022/04/12 01:54:44;;;;;;;8.38;5.75;;;0.10;99.90;;;;;;5037913;28;20478;-68
2022/04/12 01:57:10;;;;;;;11.20;5.65;;;0.00;99.90;;;;;;5037770;28;20040;-68
2022/04/12 01:59:35;;;;;;;17.50;6.07;;;0.00;99.90;;;;;;5037445;28;20026;-68
2022/04/12 02:02:01;;;;;;;14.13;5.95;;;0.00;99.90;;;;;;5037445;28;20025;-68
2022/04/12 02:04:26;;;;;;;18.67;5.88;;;0.00;99.90;;;;;;5037242;28;20026;-68
2022/04/12 02:06:52;;;;;;;13.35;6.50;;;0.00;99.90;;;;;;5019586;28;20026;-68
2022/04/12 02:09:17;;;;;;;15.52;6.60;;;0.10;99.90;;;;;;5037333;28;20030;-68
2022/04/12 02:11:43;;;;;;;11.95;5.78;;;0.10;99.90;;;;;;5036881;28;20041;-68
2022/04/12 02:14:09;;;;;;;13.13;6.05;;;0.10;99.90;;;;;;5036629;28;20022;-68
2022/04/12 02:16:34;;;;;;;12.02;6.10;;;0.10;99.90;;;;;;5036618;28;20030;-68
2022/04/12 02:19:00;;;;;;;11.38;6.20;;;0.10;99.90;;;;;;5036560;28;20022;-68
2022/04/12 02:21:26;;;;;;;11.45;6.05;;;0.10;99.90;;;;;;5036786;28;20036;-68
2022/04/12 02:23:51;;;;;;;10.10;5.22;;;0.10;99.90;;;;;;5036684;28;20466;-68
2022/04/12 02:26:17;;;;;;;11.48;5.72;;;0.10;99.90;;;;;;5036854;28;20546;-68
2022/04/12 02:28:42;;;;;;;11.98;5.80;;;0.20;99.90;;;;;;5018377;28;20018;-68
2022/04/12 02:31:08;;;;;;;12.93;5.47;;;0.20;99.90;;;;;;5036407;28;20473;-68
2022/04/12 02:33:33;;;;;;;13.40;6.15;;;0.20;99.90;;;;;;5036122;28;20037;-68
2022/04/12 02:35:59;;;;;;;13.20;6.43;;;0.30;99.90;;;;;;5036257;28;20025;-68
2022/04/12 02:38:24;;;;;;;12.88;6.82;;;0.30;99.90;;;;;;5036426;28;20044;-68
2022/04/12 02:40:50;;;;;;;14.65;5.72;;;0.40;99.90;;;;;;5036049;28;20057;-68
2022/04/12 02:43:15;;;;;;;16.80;6.32;;;0.40;99.90;;;;;;5036074;28;20508;-68
2022/04/12 02:45:41;;;;;;;11.57;5.78;;;0.50;99.90;;;;;;5035756;28;20025;-68
2022/04/12 02:48:08;;;;;;;13.60;5.68;;;0.50;99.90;;;;;;5035932;28;20022;-68
2022/04/12 02:50:34;;;;;;;14.30;5.65;;;0.60;99.90;;;;;;5035548;28;20017;-68
2022/04/12 02:53:00;;;;;;;15.85;6.13;;;0.70;99.90;;;;;;5035560;28;20097;-68
2022/04/12 02:55:25;;;;;;;18.27;5.97;;;0.70;99.90;;;;;;5035606;28;20178;-68
2022/04/12 02:57:51;;;;;;;11.00;5.07;;;0.80;99.90;;;;;;5035704;28;20025;-68
2022/04/12 03:00:17;;;;;;;17.42;6.47;;;0.80;99.90;;;;;;5036121;28;20568;-68
2022/04/12 03:02:42;;;;;;;14.52;5.53;;;0.90;99.90;;;;;;5035419;28;20109;-68
2022/04/12 03:05:10;;;;;;;14.68;5.60;;;1.00;99.90;;;;;;5035431;28;20453;-68
2022/04/12 03:07:35;;;;;;;11.52;4.78;;;1.00;99.90;;;;;;5035539;28;20098;-68
2022/04/12 03:10:02;;;;;;;13.35;5.10;;;1.10;99.90;;;;;;5035215;28;20569;-68
2022/04/12 03:12:27;;;;;;;14.35;5.88;;;1.10;99.90;;;;;;5017503;28;20502;-68
2022/04/12 03:14:53;;;;;;;11.27;5.00;;;1.10;99.90;;;;;;5035123;28;20036;-68
2022/04/12 03:17:20;;;;;;;17.33;6.07;;;1.20;99.90;;;;;;5035057;28;20032;-68
2022/04/12 03:19:46;;;;;;;16.23;5.13;;;1.20;99.90;;;;;;5035088;28;20390;-68
2022/04/12 03:22:12;;;;;;;13.93;5.38;;;1.30;99.90;;;;;;5035240;28;20025;-68
2022/04/12 03:24:38;;;;;;;15.30;5.03;;;1.30;99.90;;;;;;5035983;28;20033;-68
2022/04/12 03:27:04;;;;;;;11.93;5.35;;;1.30;99.90;;;;;;5035620;28;20029;-68
2022/04/12 03:29:30;;;;;;;11.10;5.15;;;1.30;99.90;;;;;;5035242;28;20025;-68
2022/04/12 03:31:56;;;;;;;11.02;4.80;;;1.30;99.90;;;;;;5035707;28;20163;-68
2022/04/12 03:34:21;;;;;;;8.90;3.88;;;1.30;99.90;;;;;;5035995;28;20025;-68
2022/04/12 03:36:47;;;;;;;9.85;4.75;;;1.30;99.90;;;;;;5035479;28;20120;-68
2022/04/12 03:39:17;;;;;;;21.45;5.25;;;1.30;99.90;;;;;;5036068;28;20030;-68
2022/04/12 03:41:47;;;;;;;17.00;5.53;;;1.30;99.90;;;;;;5035676;28;20083;-68
2022/04/12 03:44:13;;;;;;;25.30;5.53;;;1.30;99.90;;;;;;5035354;28;20139;-68
2022/04/12 03:46:39;;;;;;;12.57;5.38;;;1.30;99.90;;;;;;5035283;28;20022;-68
2022/04/12 03:49:05;;;;;;;9.63;5.15;;;1.30;99.90;;;;;;5034950;28;20113;-68
2022/04/12 03:51:30;;;;;;;9.13;3.92;;;1.30;99.90;;;;;;5035551;28;20363;-68
2022/04/12 03:53:56;;;;;;;19.95;4.53;;;1.40;99.90;;;;;;5035617;28;20072;-68
2022/04/12 03:56:22;;;;;;;13.07;4.13;;;1.40;99.90;;;;;;5035746;28;20023;-68
2022/04/12 03:58:48;;;;;;;32.00;5.15;;;1.50;99.90;;;;;;5035288;28;20025;-68
2022/04/12 04:01:14;;;;;;;9.55;5.13;;;1.50;99.90;;;;;;5034903;28;20368;-68
2022/04/12 04:03:39;;;;;;;11.98;4.53;;;1.60;99.90;;;;;;5035252;28;20041;-68
2022/04/12 04:06:05;;;;;;;17.00;5.35;;;1.60;99.90;;;;;;5035327;28;20029;-68
2022/04/12 04:08:31;;;;;;;12.77;4.63;;;1.70;99.90;;;;;;5035077;28;20021;-68
2022/04/12 04:10:57;;;;;;;12.27;4.57;;;1.60;99.90;;;;;;5034798;28;20022;-68
2022/04/12 04:13:24;;;;;;;11.35;4.55;;;1.60;99.90;;;;;;5034728;28;20172;-68
2022/04/12 04:15:50;;;;;;;17.23;4.78;;;1.70;99.90;;;;;;5035073;28;20028;-68
2022/04/12 04:18:16;;;;;;;10.15;4.72;;;1.70;99.90;;;;;;5034869;28;20390;-68
2022/04/12 04:20:42;;;;;;;16.80;4.20;;;1.60;99.90;;;;;;5034788;28;20037;-68
2022/04/12 04:23:09;;;;;;;8.98;4.00;;;1.70;99.90;;;;;;5035089;28;20091;-68
2022/04/12 04:25:34;;;;;;;13.13;4.85;;;1.70;99.90;;;;;;5035170;28;20061;-68
2022/04/12 04:28:02;;;;;;;15.60;4.10;;;1.70;99.90;;;;;;5034759;28;20049;-68
2022/04/12 04:30:30;;;;;;;11.77;3.85;;;1.70;99.90;;;;;;5034405;28;20030;-68
2022/04/12 04:32:55;;;;;;;6.88;4.05;;;1.60;99.90;;;;;;5034086;28;20018;-68
2022/04/12 04:35:21;;;;;;;10.95;4.32;;;1.70;99.90;;;;;;5034087;28;20478;-68
2022/04/12 04:37:48;;;;;;;8.27;3.95;;;1.70;99.90;;;;;;5034067;28;20064;-68
2022/04/12 04:40:19;;;;;;;10.45;3.95;;;1.70;99.90;;;;;;5033883;28;20117;-68
2022/04/12 04:42:45;;;;;;;11.77;4.20;;;1.80;99.90;;;;;;5016821;28;20021;-68
2022/04/12 04:45:11;;;;;;;14.80;4.45;;;1.80;99.90;;;;;;5033737;28;20180;-68
2022/04/12 04:47:54;;;;;;;11.60;4.40;;;1.80;99.90;;;;;;5034104;28;20025;-68
2022/04/12 04:50:21;;;;;;;9.00;3.85;;;1.90;99.90;;;;;;5034022;28;20060;-68
2022/04/12 04:52:47;;;;;;;14.15;5.53;;;1.90;99.90;;;;;;5033813;28;20026;-68
2022/04/12 04:55:13;;;;;;;20.58;4.20;;;2.00;99.90;;;;;;5034030;28;20024;-68
2022/04/12 04:57:43;;;;;;;13.68;4.18;;;2.10;99.90;;;;;;5033958;28;20048;-68
2022/04/12 05:00:17;;;;;;;14.18;3.53;;;2.10;99.90;;;;;;5033684;28;20013;-68
2022/04/12 05:02:47;;;;;;;7.40;3.75;;;2.20;99.90;;;;;;5038121;28;20524;-68
2022/04/12 05:05:14;;;;;;;11.82;4.38;;;2.30;99.90;;;;;;5037734;28;20029;-68
2022/04/12 05:07:41;;;;;;;11.52;4.38;;;2.30;99.90;;;;;;5037546;28;20069;-68
2022/04/12 05:10:08;;;;;;;8.98;3.40;;;2.40;99.90;;;;;;5037634;28;20581;-68
2022/04/12 05:12:34;;;;;;;9.57;3.38;;;2.50;99.90;;;;;;5037537;28;20021;-68
2022/04/12 05:14:59;;;;;;;19.77;4.40;;;2.60;99.90;;;;;;5037749;28;20032;-67
2022/04/12 05:17:28;;;;;;;12.88;3.80;;;2.70;99.90;;;;;;5037029;28;20021;-67
2022/04/12 05:19:56;;;;;;;16.38;4.43;;;2.90;99.90;;;;;;5037008;28;20393;-67
2022/04/12 05:22:23;;;;;;;11.43;3.88;;;3.00;99.90;;;;;;5036964;28;20091;-66
2022/04/12 05:24:49;;;;;;;10.57;3.80;;;3.10;99.90;;;;;;5036824;28;20022;-66
2022/04/12 05:27:17;;;;;;;21.55;4.97;;;3.20;99.90;;;;;;5036939;28;20532;-66
2022/04/12 05:29:43;;;;;;;14.65;4.50;;;3.30;99.90;;;;;;5037032;28;20064;-67
2022/04/12 05:32:09;;;;;;;11.45;4.72;;;3.40;99.90;;;;;;5036781;28;20021;-66
2022/04/12 05:34:39;;;;;;;7.32;4.13;;;3.50;99.90;;;;;;5036726;28;20029;-66
2022/04/12 05:37:05;;;;;;;12.98;5.22;;;3.60;99.90;;;;;;5018911;28;20490;-66
2022/04/12 05:39:31;;;;;;;9.13;4.65;;;3.80;99.90;;;;;;5036577;28;20032;-66
2022/04/12 05:42:00;;;;;;;9.73;4.95;;;3.80;99.90;;;;;;5036999;28;20363;-66
2022/04/12 05:44:27;;;;;;;13.90;4.70;;;3.90;99.90;;;;;;5036831;28;20028;-66
2022/04/12 05:46:52;;;;;;;16.23;4.70;;;4.00;99.90;;;;;;5036746;28;20017;-66
2022/04/12 05:49:18;;;;;;;19.48;5.50;;;4.10;99.90;;;;;;5036331;28;20040;-67
2022/04/12 05:51:43;;;;;;;13.07;4.63;;;4.20;99.90;;;;;;5036986;28;20025;-67
2022/04/12 05:54:09;;;;;;;14.55;4.18;;;4.20;99.90;;;;;;5018500;28;20470;-67
2022/04/12 05:56:34;;;;;;;11.88;3.78;;;4.30;99.90;;;;;;5036347;28;20026;-67
2022/04/12 05:59:00;;;;;;;12.60;4.05;;;4.40;99.90;;;;;;5036389;28;20029;-67
2022/04/12 06:01:25;;;;;;;12.73;4.35;;;4.40;99.90;;;;;;5036759;28;20037;-67
2022/04/12 06:03:51;;;;;;;14.18;4.63;;;4.50;99.90;;;;;;5036186;28;20074;-67
2022/04/12 06:06:16;;;;;;;6.43;3.33;;;4.60;99.90;;;;;;5035960;28;20075;-67
2022/04/12 06:08:42;;;;;;;10.63;3.58;;;4.70;99.90;;;;;;5035964;28;20025;-67
2022/04/12 06:11:07;;;;;;;6.47;3.40;;;4.70;99.90;;;;;;5035950;28;20371;-67
2022/04/12 06:13:33;;;;;;;8.88;3.50;;;4.80;99.90;;;;;;5035215;28;20061;-67
2022/04/12 06:15:58;;;;;;;14.98;4.13;;;4.90;99.90;;;;;;5035888;28;20025;-66
2022/04/12 06:18:24;;;;;;;10.27;3.60;;;5.00;99.90;;;;;;5036422;28;20037;-66
2022/04/12 06:20:50;;;;;;;17.25;3.20;;;5.00;99.90;;;;;;5035891;28;20026;-66
2022/04/12 06:23:17;;;;;;;10.20;3.97;;;5.10;99.90;;;;;;5036021;28;20482;-67
2022/04/12 06:25:43;;;;;;;8.40;3.42;;;5.20;99.90;;;;;;5035948;28;20032;-67
2022/04/12 06:28:09;;;;;;;11.70;4.25;;;5.20;99.90;;;;;;5035643;28;20013;-67
2022/04/12 06:30:34;;;;;;;7.45;3.33;;;5.30;99.90;;;;;;5035626;28;20049;-67
2022/04/12 06:33:00;;;;;;;12.15;3.03;;;5.40;99.90;;;;;;5035663;28;20101;-67
2022/04/12 06:35:25;;;;;;;12.43;4.00;;;5.50;99.90;;;;;;5035596;28;20382;-67
2022/04/12 06:37:53;;;;;;;7.47;2.72;;;5.50;99.90;;;;;;5035486;28;20032;-67
2022/04/12 06:40:19;;;;;;;7.35;3.22;;;5.60;99.90;;;;;;5035595;28;20359;-67
2022/04/12 06:42:47;;;;;;;12.60;3.47;;;5.70;99.90;;;;;;5035697;28;20021;-67
2022/04/12 06:45:12;;;;;;;17.98;3.08;;;5.80;99.90;;;;;;5035604;28;20025;-67
2022/04/12 06:47:39;;;;;;;16.13;3.55;;;5.90;99.90;;;;;;5035356;28;20025;-67
2022/04/12 06:50:05;;;;;;;7.43;3.80;;;6.00;99.90;;;;;;5035128;28;20021;-67
2022/04/12 06:52:31;;;;;;;7.07;2.80;;;6.00;99.90;;;;;;5035468;28;20104;-67
2022/04/12 06:54:57;;;;;;;13.38;3.33;;;6.10;99.90;;;;;;5035153;28;20021;-67
2022/04/12 06:57:23;;;;;;;8.02;3.15;;;6.20;99.90;;;;;;5035163;28;20096;-67
2022/04/12 06:59:49;;;;;;;9.82;3.40;;;6.20;99.90;;;;;;5035045;28;20152;-67
2022/04/12 07:02:14;;;;;;;6.75;3.00;;;6.30;99.90;;;;;;5035087;28;20096;-67
2022/04/12 07:04:40;;;;;;;10.50;4.05;;;6.40;99.90;;;;;;5035422;28;20022;-67
2022/04/12 07:07:05;;;;;;;9.73;3.50;;;6.40;99.90;;;;;;5017180;28;20021;-67
2022/04/12 07:09:31;;;;;;;15.82;3.70;;;6.50;99.90;;;;;;5017013;28;20044;-67
2022/04/12 07:11:58;;;;;;;13.27;4.25;;;6.50;99.90;;;;;;5034900;28;20021;-67
2022/04/12 07:14:25;;;;;;;13.40;3.67;;;6.60;99.90;;;;;;5034936;28;20053;-67
2022/04/12 07:16:50;;;;;;;13.38;4.45;;;6.60;99.90;;;;;;5034802;28;20021;-66
2022/04/12 07:19:16;;;;;;;18.50;4.10;;;6.70;99.90;;;;;;5034710;28;20033;-67
2022/04/12 07:21:42;;;;;;;16.58;3.97;;;6.80;99.90;;;;;;5034697;28;20025;-68
2022/04/12 07:24:09;;;;;;;10.15;4.15;;;6.90;99.90;;;;;;5034032;28;20533;-67
2022/04/12 07:26:36;;;;;;;13.50;3.75;;;7.00;99.90;;;;;;5034408;28;20033;-66
2022/04/12 07:29:03;;;;;;;10.60;4.22;;;7.10;99.90;;;;;;5034756;28;20535;-67
2022/04/12 07:31:28;;;;;;;15.27;4.85;;;7.30;99.90;;;;;;5034768;28;20033;-67
2022/04/12 07:33:54;;;;;;;9.93;3.58;;;7.40;99.90;;;;;;5034668;28;20148;-66
2022/04/12 07:36:20;;;;;;;17.08;4.65;;;7.50;99.90;;;;;;5034388;28;20022;-66
2022/04/12 07:38:48;;;;;;;10.23;4.68;;;7.60;99.90;;;;;;5034606;28;20415;-67
2022/04/12 07:41:14;;;;;;;8.68;4.10;;;7.70;99.90;;;;;;5034598;28;20428;-66
2022/04/12 07:43:41;;;;;;;13.30;4.30;;;7.80;99.90;;;;;;5034286;28;20026;-66
2022/04/12 07:46:07;;;;;;;14.25;3.97;;;7.80;99.90;;;;;;5034076;28;20092;-66
2022/04/12 07:48:32;;;;;;;9.95;4.60;;;8.00;99.90;;;;;;5034222;28;20021;-66
2022/04/12 07:50:58;;;;;;;12.80;4.40;;;8.00;99.90;;;;;;5034502;28;20029;-66
2022/04/12 07:53:23;;;;;;;16.95;4.30;;;8.10;99.90;;;;;;5034020;28;20429;-66
2022/04/12 07:55:49;;;;;;;9.98;4.43;;;8.20;99.90;;;;;;5034068;28;20436;-66
2022/04/12 07:58:18;;;;;;;10.20;4.03;;;8.40;99.90;;;;;;5033964;28;20478;-66
2022/04/12 08:00:43;;;;;;;10.73;4.63;;;8.50;99.90;;;;;;5033874;28;20065;-67
2022/04/12 08:03:09;;;;;;;19.42;4.82;;;8.60;99.90;;;;;;5034025;28;20480;-67
2022/04/12 08:05:35;;;;;;;16.65;4.55;;;8.60;99.90;;;;;;5034141;28;20481;-67
2022/04/12 08:08:02;;;;;;;15.38;5.28;;;8.60;99.90;;;;;;5034440;28;20112;-67
2022/04/12 08:10:28;;;;;;;7.93;4.63;;;8.50;99.90;;;;;;5033698;28;20037;-67
2022/04/12 08:12:54;;;;;;;10.70;5.03;;;8.40;99.90;;;;;;5033800;28;20028;-67
2022/04/12 08:15:20;;;;;;;18.23;6.20;;;8.40;99.90;;;;;;5034067;28;20052;-67
2022/04/12 08:17:45;;;;;;;17.08;6.25;;;8.50;99.90;;;;;;5033745;28;20057;-67
2022/04/12 08:20:13;;;;;;;20.02;8.93;;;8.80;99.90;;;;;;5033747;28;20093;-67
2022/04/12 08:22:39;;;;;;;28.50;13.40;;;9.00;99.90;;;;;;5033975;28;20501;-67
2022/04/12 08:25:06;;;;;;;30.33;13.20;;;9.30;99.90;;;;;;5034113;28;20014;-67
2022/04/12 08:27:31;;;;;;;29.23;14.13;;;9.70;99.90;;;;;;5033544;28;20030;-67
2022/04/12 08:29:57;;;;;;;28.60;13.07;;;10.10;99.90;;;;;;5033440;28;20381;-67
2022/04/12 08:32:23;;;;;;;26.75;12.70;;;10.30;99.90;;;;;;5033649;28;20025;-67
2022/04/12 08:34:48;;;;;;;31.20;11.75;;;10.60;99.90;;;;;;5033523;28;20025;-67
2022/04/12 08:37:14;;;;;;;25.75;12.25;;;10.70;99.90;;;;;;5033619;28;20037;-67
2022/04/12 08:39:39;;;;;;;22.95;11.02;;;10.90;99.90;;;;;;5033334;28;20083;-67
2022/04/12 08:42:06;;;;;;;27.50;10.82;;;11.00;99.90;;;;;;5033365;28;20033;-67
2022/04/12 08:44:33;;;;;;;23.70;8.70;;;11.10;99.90;;;;;;5033428;28;20555;-67
2022/04/12 08:47:02;;;;;;;21.98;7.43;;;11.10;99.90;;;;;;5033251;28;20032;-67
2022/04/12 08:49:29;;;;;;;13.07;5.55;;;11.20;99.90;;;;;;5033383;28;20030;-67
2022/04/12 08:51:55;;;;;;;13.93;6.13;;;11.20;99.90;;;;;;5033739;28;20029;-67
2022/04/12 08:54:21;;;;;;;11.73;5.07;;;11.30;99.90;;;;;;5033243;28;20029;-67
2022/04/12 08:56:49;;;;;;;15.95;5.13;;;11.40;99.90;;;;;;5033348;28;20025;-67
2022/04/12 08:59:16;;;;;;;11.02;5.55;;;11.40;99.90;;;;;;5033607;28;20041;-67
2022/04/12 09:01:42;;;;;;;12.20;5.07;;;11.50;99.90;;;;;;5033292;28;20390;-67
2022/04/12 09:04:08;;;;;;;11.77;5.57;;;11.60;99.90;;;;;;5033513;28;20032;-67
2022/04/12 09:06:35;;;;;;;16.85;5.47;;;11.80;99.90;;;;;;5033095;28;20030;-67
2022/04/12 09:09:16;;;;;;;16.42;5.40;;;11.90;99.90;;;;;;5032913;28;20390;-67
2022/04/12 09:11:42;;;;;;;11.52;5.35;;;12.20;99.90;;;;;;5033254;28;20045;-67
2022/04/12 09:14:13;;;;;;;12.98;5.50;;;12.40;99.90;;;;;;5033163;28;20028;-67
2022/04/12 09:16:45;;;;;;;12.02;5.10;;;12.50;99.90;;;;;;5033240;28;20389;-67
2022/04/12 09:19:11;;;;;;;8.07;5.20;;;12.60;99.90;;;;;;5015325;28;20112;-67
2022/04/12 09:21:46;;;;;;;13.98;5.75;;;12.60;99.90;;;;;;5033128;28;20104;-67
2022/04/12 09:24:19;;;;;;;7.00;4.35;;;12.80;99.90;;;;;;5033438;28;20037;-67
2022/04/12 09:26:57;;;;;;;24.90;5.30;;;13.10;99.90;;;;;;5033608;28;20033;-66
2022/04/12 09:29:27;;;;;;;12.13;5.03;;;13.30;99.90;;;;;;5033869;28;20361;-67
2022/04/12 09:31:58;;;;;;;8.45;5.57;;;13.60;99.90;;;;;;5033312;28;20024;-66
2022/04/12 09:34:25;;;;;;;7.28;4.13;;;13.70;99.90;;;;;;5033330;28;20355;-66
2022/04/12 09:36:51;;;;;;;13.45;5.60;;;13.90;99.90;;;;;;5032979;28;20079;-66
2022/04/12 09:39:20;;;;;;;10.40;4.65;;;14.20;99.90;;;;;;5032841;28;20433;-67
2022/04/12 09:41:49;;;;;;;10.35;3.60;;;14.20;99.90;;;;;;5032894;28;20033;-67
2022/04/12 09:44:19;;;;;;;11.05;4.32;;;14.40;99.90;;;;;;5033089;28;20478;-66
2022/04/12 09:46:45;;;;;;;11.75;5.00;;;14.30;99.90;;;;;;5032795;28;20034;-66
2022/04/12 09:49:11;;;;;;;12.07;4.80;;;14.40;99.90;;;;;;5035454;28;20523;-67
2022/04/12 09:51:38;;;;;;;8.45;4.55;;;14.30;99.90;;;;;;5036454;28;20025;-66
2022/04/12 09:54:08;;;;;;;9.20;4.28;;;14.10;99.90;;;;;;5036470;28;20017;-66
2022/04/12 09:56:35;;;;;;;10.90;4.03;;;14.10;99.90;;;;;;5036637;28;20064;-67
2022/04/12 09:59:06;;;;;;;21.92;4.90;;;14.00;99.90;;;;;;5036525;28;20064;-67
2022/04/12 10:01:39;;;;;;;7.97;4.32;;;14.00;99.90;;;;;;5036600;28;20497;-67
2022/04/12 10:04:08;;;;;;;13.10;4.65;;;13.90;99.90;;;;;;5036477;28;20079;-67
2022/04/12 10:06:43;;;;;;;7.70;4.65;;;13.90;99.90;;;;;;5036079;28;20116;-67
2022/04/12 10:09:13;;;;;;;15.70;4.95;;;13.80;99.90;;;;;;5036157;28;20554;-67
2022/04/12 10:11:39;;;;;;;6.18;4.15;;;13.90;99.90;;;;;;5036082;28;20048;-67
2022/04/12 10:14:05;;;;;;;11.30;4.55;;;13.90;99.90;;;;;;5035983;28;20394;-67
2022/04/12 10:16:32;;;;;;;8.75;4.65;;;13.90;99.90;;;;;;5035991;28;20057;-67
2022/04/12 10:19:00;;;;;;;9.95;4.88;;;14.00;99.90;;;;;;5035955;28;20032;-67
2022/04/12 10:21:26;;;;;;;9.05;3.95;;;14.00;99.90;;;;;;5035868;28;20013;-67
2022/04/12 10:23:56;;;;;;;9.38;4.97;;;14.10;99.90;;;;;;5035955;28;20030;-67
2022/04/12 10:26:25;;;;;;;9.68;5.07;;;14.20;99.90;;;;;;5036230;28;20033;-67
2022/04/12 10:28:57;;;;;;;12.00;5.28;;;14.50;99.90;;;;;;5035843;28;20105;-68
2022/04/12 10:31:30;;;;;;;9.90;4.72;;;14.50;99.90;;;;;;5035941;28;20123;-68
2022/04/12 10:34:02;;;;;;;14.57;4.65;;;14.40;99.90;;;;;;5035839;28;20025;-67
2022/04/12 10:37:04;;;;;;;10.30;4.90;;;14.50;99.90;;;;;;5035990;28;20025;-67
2022/04/12 10:39:36;;;;;;;9.90;5.10;;;14.50;99.90;;;;;;5035537;28;20049;-67
2022/04/12 10:42:13;;;;;;;13.18;4.53;;;14.40;99.90;;;;;;5035441;28;20382;-67
2022/04/12 10:44:42;;;;;;;15.32;6.05;;;14.20;99.90;;;;;;5035524;28;20414;-67
2022/04/12 10:47:27;;;;;;;22.33;6.82;;;14.10;99.90;;;;;;5035245;28;20040;-67
2022/04/12 10:49:54;;;;;;;9.82;4.70;;;14.30;99.90;;;;;;5035848;28;20144;-67
2022/04/12 10:52:30;;;;;;;12.75;6.28;;;14.40;99.90;;;;;;5035297;28;20060;-68
2022/04/12 10:54:57;;;;;;;12.50;5.45;;;14.20;99.90;;;;;;5035298;28;20025;-67
2022/04/12 10:57:23;;;;;;;11.60;5.07;;;14.30;99.90;;;;;;5035232;28;20032;-67
2022/04/12 11:00:01;;;;;;;15.80;6.60;;;14.30;99.90;;;;;;5034991;28;20021;-67
2022/04/12 11:02:37;;;;;;;12.43;5.47;;;14.20;99.90;;;;;;5035371;28;20017;-67
2022/04/12 11:05:04;;;;;;;14.32;6.40;;;14.30;99.90;;;;;;5035325;28;20033;-67
2022/04/12 11:07:32;;;;;;;9.40;5.85;;;14.30;99.90;;;;;;5035429;28;20029;-67
2022/04/12 11:10:13;;;;;;;9.95;5.72;;;14.20;99.90;;;;;;5034880;28;20041;-67
2022/04/12 11:12:45;;;;;;;10.13;5.35;;;14.10;99.90;;;;;;5034878;28;20036;-67
2022/04/12 11:15:40;;;;;;;13.13;5.82;;;14.20;99.90;;;;;;5035244;28;20061;-67
2022/04/12 11:18:12;;;;;;;17.80;5.20;;;14.30;99.90;;;;;;5017763;28;20033;-67
2022/04/12 11:20:41;;;;;;;17.58;6.07;;;14.40;99.90;;;;;;5034770;28;20021;-67
2022/04/12 11:23:10;;;;;;;11.13;5.43;;;14.50;99.90;;;;;;5034929;28;20462;-67
2022/04/12 11:25:48;;;;;;;14.88;6.72;;;14.70;99.90;;;;;;5034925;28;20032;-67
2022/04/12 11:28:15;;;;;;;12.07;6.13;;;15.00;99.90;;;;;;5034697;28;20025;-67
2022/04/12 11:30:51;;;;;;;16.60;6.07;;;15.20;99.90;;;;;;5034509;28;20013;-67
2022/04/12 11:33:16;;;;;;;17.38;5.43;;;15.50;99.90;;;;;;5034744;28;20022;-67
2022/04/12 11:35:42;;;;;;;20.92;6.18;;;16.00;99.90;;;;;;5034339;28;20389;-67
2022/04/12 11:38:08;;;;;;;9.82;5.65;;;16.40;99.90;;;;;;5034508;28;20030;-67
2022/04/12 11:40:33;;;;;;;12.88;6.32;;;16.80;99.90;;;;;;5034850;28;20033;-67
2022/04/12 11:42:59;;;;;;;12.77;6.50;;;17.00;99.90;;;;;;5034320;28;20104;-67
2022/04/12 11:45:32;;;;;;;10.55;5.97;;;17.00;99.90;;;;;;5034309;28;20049;-67
2022/04/12 11:47:58;;;;;;;12.50;5.95;;;17.10;99.90;;;;;;5034564;28;20033;-67
2022/04/12 11:50:23;;;;;;;10.60;5.85;;;17.70;99.90;;;;;;5034264;28;20086;-67
2022/04/12 11:52:49;;;;;;;11.20;6.25;;;17.90;99.90;;;;;;5034186;28;20029;-65
2022/04/12 11:55:15;;;;;;;16.77;5.70;;;18.20;99.90;;;;;;5034006;28;20021;-67
2022/04/12 11:57:41;;;;;;;10.18;5.53;;;18.40;99.90;;;;;;5034036;28;20029;-67
2022/04/12 12:00:08;;;;;;;13.60;6.25;;;18.80;99.90;;;;;;5034009;28;20470;-67
2022/04/12 12:02:37;;;;;;;11.25;6.25;;;19.20;99.90;;;;;;5034286;28;20091;-67
2022/04/12 12:05:08;;;;;;;11.05;5.47;;;19.40;99.90;;;;;;5033957;28;20496;-67
2022/04/12 12:07:36;;;;;;;9.80;6.32;;;19.40;99.90;;;;;;5034140;28;20041;-67
2022/04/12 12:10:06;;;;;;;14.15;6.43;;;19.60;99.90;;;;;;5033459;28;20060;-67
2022/04/12 12:12:35;;;;;;;12.68;6.68;;;19.70;99.90;;;;;;5033624;28;20478;-67
2022/04/12 12:15:23;;;;;;;9.70;6.07;;;19.50;99.90;;;;;;5033824;28;20045;-67
2022/04/12 12:17:52;;;;;;;12.40;7.40;;;19.70;99.90;;;;;;5033818;28;20101;-67
2022/04/12 12:20:19;;;;;;;13.73;6.78;;;19.70;99.90;;;;;;5033642;28;20021;-67
2022/04/12 12:22:47;;;;;;;12.07;6.18;;;19.80;99.90;;;;;;5033914;28;20030;-67
2022/04/12 12:25:19;;;;;;;11.38;6.50;;;20.10;99.90;;;;;;5033579;28;20017;-67
2022/04/12 12:27:53;;;;;;;12.30;6.25;;;20.60;99.90;;;;;;5033759;28;20037;-67
2022/04/12 12:30:21;;;;;;;12.27;6.22;;;20.90;99.90;;;;;;5033703;28;20025;-67
2022/04/12 12:32:50;;;;;;;13.60;6.43;;;20.90;99.90;;;;;;5015898;28;20026;-67
2022/04/12 12:35:17;;;;;;;16.55;7.07;;;21.30;99.90;;;;;;5033920;28;20060;-67
2022/04/12 12:37:45;;;;;;;13.75;6.90;;;21.50;99.90;;;;;;5033790;28;20352;-67
2022/04/12 12:40:23;;;;;;;13.82;6.93;;;21.30;99.90;;;;;;5033418;28;20540;-67
2022/04/12 12:42:50;;;;;;;11.30;6.75;;;20.90;99.90;;;;;;5034183;28;20029;-67
2022/04/12 12:45:18;;;;;;;15.90;7.20;;;20.90;99.90;;;;;;5033874;28;20037;-67
2022/04/12 12:47:46;;;;;;;12.10;7.38;;;20.60;99.90;;;;;;5033423;28;20026;-67
2022/04/12 12:50:16;;;;;;;19.15;7.63;;;20.30;99.40;;;;;;5033610;28;20017;-67